sensor_id;sensor_type;location;lat;lon;timestamp;pressure;altitude;pressure_sealevel;temperature;humidity
19508;BME280;40157;42.566;27.526;2022-12-29T12:55:53;102091.16;;;14.92;55.34
19508;BME280;40157;42.566;27.526;2022-12-29T13:00:11;102081.69;;;15.04;56.99
19508;BME280;40157;42.566;27.526;2022-12-29T13:02:39;102092.56;;;15.19;56.35
19508;BME280;40157;42.566;27.526;2022-12-29T13:16:41;102115.72;;;15.80;54.45
19508;BME280;40157;42.566;27.526;2022-12-29T13:18:54;102100.81;;;15.85;53.99
19508;BME280;40157;42.566;27.526;2022-12-29T13:21:05;102108.00;;;15.92;53.42
19508;BME280;40157;42.566;27.526;2022-12-29T13:25:51;102102.44;;;15.77;52.78
19508;BME280;40157;42.566;27.526;2022-12-29T13:32:52;102093.75;;;15.84;52.39
19508;BME280;40157;42.566;27.526;2022-12-29T13:37:50;102088.72;;;15.99;52.64
19508;BME280;40157;42.566;27.526;2022-12-29T13:39:58;102079.94;;;16.03;53.27
19508;BME280;40157;42.566;27.526;2022-12-29T13:42:02;102089.00;;;16.19;52.50
19508;BME280;40157;42.566;27.526;2022-12-29T13:44:05;102085.59;;;16.28;52.06
19508;BME280;40157;42.566;27.526;2022-12-29T13:46:19;102089.31;;;16.39;52.44
19508;BME280;40157;42.566;27.526;2022-12-29T13:48:24;102085.91;;;16.50;51.49
19508;BME280;40157;42.566;27.526;2022-12-29T13:50:28;102080.75;;;16.59;52.10
19508;BME280;40157;42.566;27.526;2022-12-29T13:52:37;102076.47;;;16.69;51.50
19508;BME280;40157;42.566;27.526;2022-12-29T13:54:45;102071.75;;;16.46;49.30
19508;BME280;40157;42.566;27.526;2022-12-29T13:59:23;102082.16;;;16.35;49.32
19508;BME280;40157;42.566;27.526;2022-12-29T14:01:34;102062.47;;;16.15;52.70
19508;BME280;40157;42.566;27.526;2022-12-29T14:05:39;102046.16;;;15.87;55.81
19508;BME280;40157;42.566;27.526;2022-12-29T14:07:40;102086.88;;;15.95;56.49
19508;BME280;40157;42.566;27.526;2022-12-29T14:11:50;102075.88;;;15.70;59.35
19508;BME280;40157;42.566;27.526;2022-12-29T14:13:51;102065.81;;;15.49;60.21
19508;BME280;40157;42.566;27.526;2022-12-29T14:15:54;102078.81;;;15.37;61.53
19508;BME280;40157;42.566;27.526;2022-12-29T14:18:10;102048.31;;;15.07;62.46
19508;BME280;40157;42.566;27.526;2022-12-29T14:20:21;102077.44;;;15.12;62.77
19508;BME280;40157;42.566;27.526;2022-12-29T14:22:24;102086.00;;;14.98;62.99
19508;BME280;40157;42.566;27.526;2022-12-29T14:26:36;102076.69;;;14.73;63.38
19508;BME280;40157;42.566;27.526;2022-12-29T14:28:54;102077.13;;;14.55;63.84
19508;BME280;40157;42.566;27.526;2022-12-29T14:33:15;102088.09;;;14.33;64.63
19508;BME280;40157;42.566;27.526;2022-12-29T14:35:41;102094.06;;;14.24;64.76
19508;BME280;40157;42.566;27.526;2022-12-29T14:37:42;102088.31;;;14.04;64.83
19508;BME280;40157;42.566;27.526;2022-12-29T14:39:44;102088.72;;;13.84;65.11
19508;BME280;40157;42.566;27.526;2022-12-29T14:41:45;102089.25;;;13.71;65.51
19508;BME280;40157;42.566;27.526;2022-12-29T14:44:01;102070.38;;;13.54;65.65
19508;BME280;40157;42.566;27.526;2022-12-29T14:46:02;102079.31;;;13.59;65.90
19508;BME280;40157;42.566;27.526;2022-12-29T14:48:36;102093.06;;;13.47;66.28
19508;BME280;40157;42.566;27.526;2022-12-29T14:50:43;102041.91;;;13.09;66.87
19508;BME280;40157;42.566;27.526;2022-12-29T14:52:58;102077.25;;;13.16;67.98
19508;BME280;40157;42.566;27.526;2022-12-29T14:57:50;102076.38;;;12.85;69.20
19508;BME280;40157;42.566;27.526;2022-12-29T14:59:59;102060.69;;;12.57;70.39
19508;BME280;40157;42.566;27.526;2022-12-29T15:02:14;102051.34;;;12.38;70.81
19508;BME280;40157;42.566;27.526;2022-12-29T15:04:26;102070.41;;;12.31;72.04
19508;BME280;40157;42.566;27.526;2022-12-29T15:06:30;102061.94;;;12.13;72.88
19508;BME280;40157;42.566;27.526;2022-12-29T15:08:39;102066.81;;;12.00;73.89
19508;BME280;40157;42.566;27.526;2022-12-29T15:10:45;102056.53;;;11.81;74.63
19508;BME280;40157;42.566;27.526;2022-12-29T15:12:52;102072.03;;;11.73;74.94
19508;BME280;40157;42.566;27.526;2022-12-29T15:14:57;102065.06;;;11.48;74.88
19508;BME280;40157;42.566;27.526;2022-12-29T15:16:58;102065.47;;;11.35;75.37
19508;BME280;40157;42.566;27.526;2022-12-29T15:18:59;102067.78;;;11.25;75.99
19508;BME280;40157;42.566;27.526;2022-12-29T15:21:05;102022.78;;;10.90;76.68
19508;BME280;40157;42.566;27.526;2022-12-29T15:23:10;102035.81;;;10.87;77.15
19508;BME280;40157;42.566;27.526;2022-12-29T15:25:15;102078.44;;;11.04;77.33
19508;BME280;40157;42.566;27.526;2022-12-29T15:27:19;102064.38;;;11.04;77.89
19508;BME280;40157;42.566;27.526;2022-12-29T15:29:42;102062.28;;;10.93;78.80
19508;BME280;40157;42.566;27.526;2022-12-29T15:31:46;102059.16;;;10.80;79.54
19508;BME280;40157;42.566;27.526;2022-12-29T15:33:51;102048.16;;;10.66;79.74
19508;BME280;40157;42.566;27.526;2022-12-29T15:35:54;102022.25;;;10.51;80.49
19508;BME280;40157;42.566;27.526;2022-12-29T15:37:55;102074.03;;;10.81;80.89
19508;BME280;40157;42.566;27.526;2022-12-29T15:39:56;102059.78;;;10.72;81.39
19508;BME280;40157;42.566;27.526;2022-12-29T15:42:01;102077.41;;;10.77;81.93
19508;BME280;40157;42.566;27.526;2022-12-29T15:44:26;102070.91;;;10.67;82.44
19508;BME280;40157;42.566;27.526;2022-12-29T15:46:30;102075.50;;;10.72;82.42
19508;BME280;40157;42.566;27.526;2022-12-29T15:48:32;102069.16;;;10.66;82.67
19508;BME280;40157;42.566;27.526;2022-12-29T15:50:34;102078.06;;;10.71;83.44
19508;BME280;40157;42.566;27.526;2022-12-29T15:52:39;102067.34;;;10.65;83.53
19508;BME280;40157;42.566;27.526;2022-12-29T15:54:42;102081.63;;;10.73;83.94
19508;BME280;40157;42.566;27.526;2022-12-29T15:56:43;102071.72;;;10.64;84.02
19508;BME280;40157;42.566;27.526;2022-12-29T15:58:49;102061.75;;;10.55;84.07
19508;BME280;40157;42.566;27.526;2022-12-29T16:00:55;102079.63;;;10.66;83.97
19508;BME280;40157;42.566;27.526;2022-12-29T16:03:00;102086.03;;;10.74;84.09
19508;BME280;40157;42.566;27.526;2022-12-29T16:05:01;102064.59;;;10.62;84.33
19508;BME280;40157;42.566;27.526;2022-12-29T16:07:04;102087.84;;;10.75;83.97
19508;BME280;40157;42.566;27.526;2022-12-29T16:09:17;102070.03;;;10.66;84.29
19508;BME280;40157;42.566;27.526;2022-12-29T16:11:25;102080.78;;;10.74;84.31
19508;BME280;40157;42.566;27.526;2022-12-29T16:13:30;102094.63;;;10.70;84.76
19508;BME280;40157;42.566;27.526;2022-12-29T16:15:32;102074.28;;;10.63;85.01
19508;BME280;40157;42.566;27.526;2022-12-29T16:17:41;102068.91;;;10.60;85.11
19508;BME280;40157;42.566;27.526;2022-12-29T16:19:56;102081.53;;;10.70;85.19
19508;BME280;40157;42.566;27.526;2022-12-29T16:21:58;102036.94;;;10.47;85.09
19508;BME280;40157;42.566;27.526;2022-12-29T16:24:05;102085.22;;;10.75;85.28
19508;BME280;40157;42.566;27.526;2022-12-29T16:26:15;102089.56;;;10.74;85.34
19508;BME280;40157;42.566;27.526;2022-12-29T16:28:21;102070.03;;;10.66;85.28
19508;BME280;40157;42.566;27.526;2022-12-29T16:30:28;102090.69;;;10.81;85.23
19508;BME280;40157;42.566;27.526;2022-12-29T16:32:30;102063.97;;;10.69;85.01
19508;BME280;40157;42.566;27.526;2022-12-29T16:34:33;102100.56;;;10.88;85.00
19508;BME280;40157;42.566;27.526;2022-12-29T16:39:16;102092.88;;;10.93;84.86
19508;BME280;40157;42.566;27.526;2022-12-29T16:41:31;102082.31;;;10.91;84.87
19508;BME280;40157;42.566;27.526;2022-12-29T16:43:33;102096.56;;;10.98;84.42
19508;BME280;40157;42.566;27.526;2022-12-29T16:47:49;102088.63;;;10.97;84.35
19508;BME280;40157;42.566;27.526;2022-12-29T16:50:17;102096.72;;;11.03;84.28
19508;BME280;40157;42.566;27.526;2022-12-29T16:52:34;102094.13;;;11.03;84.13
19508;BME280;40157;42.566;27.526;2022-12-29T16:54:36;102086.13;;;11.00;84.06
19508;BME280;40157;42.566;27.526;2022-12-29T16:56:42;102071.94;;;10.95;84.11
19508;BME280;40157;42.566;27.526;2022-12-29T16:58:49;102070.03;;;10.90;83.97
19508;BME280;40157;42.566;27.526;2022-12-29T17:00:55;102070.94;;;10.91;84.35
19508;BME280;40157;42.566;27.526;2022-12-29T17:02:57;102094.81;;;10.99;84.67
19508;BME280;40157;42.566;27.526;2022-12-29T17:04:59;102099.00;;;10.93;85.04
19508;BME280;40157;42.566;27.526;2022-12-29T17:06:59;102085.44;;;10.81;85.22
19508;BME280;40157;42.566;27.526;2022-12-29T17:09:00;102073.91;;;10.76;85.65
19508;BME280;40157;42.566;27.526;2022-12-29T17:11:01;102051.50;;;10.62;85.88
19508;BME280;40157;42.566;27.526;2022-12-29T17:13:19;102069.47;;;10.75;85.74
19508;BME280;40157;42.566;27.526;2022-12-29T17:15:26;102094.50;;;10.89;85.66
19508;BME280;40157;42.566;27.526;2022-12-29T17:17:33;102089.31;;;10.91;85.48
19508;BME280;40157;42.566;27.526;2022-12-29T17:19:36;102079.53;;;10.87;85.30
19508;BME280;40157;42.566;27.526;2022-12-29T17:21:38;102102.50;;;10.94;84.95
19508;BME280;40157;42.566;27.526;2022-12-29T17:23:40;102092.63;;;10.87;84.70
19508;BME280;40157;42.566;27.526;2022-12-29T17:25:40;102097.38;;;10.97;85.47
19508;BME280;40157;42.566;27.526;2022-12-29T17:27:52;102096.38;;;10.93;84.34
19508;BME280;40157;42.566;27.526;2022-12-29T17:30:10;102087.28;;;10.84;83.12
19508;BME280;40157;42.566;27.526;2022-12-29T17:32:12;102095.69;;;10.75;82.38
19508;BME280;40157;42.566;27.526;2022-12-29T17:34:14;102093.56;;;10.65;81.66
19508;BME280;40157;42.566;27.526;2022-12-29T17:36:15;102085.94;;;10.48;81.39
19508;BME280;40157;42.566;27.526;2022-12-29T17:38:20;102114.19;;;10.55;81.03
19508;BME280;40157;42.566;27.526;2022-12-29T17:40:24;102105.03;;;10.44;81.30
19508;BME280;40157;42.566;27.526;2022-12-29T17:42:26;102112.91;;;10.44;81.40
19508;BME280;40157;42.566;27.526;2022-12-29T17:44:26;102090.19;;;10.24;81.58
19508;BME280;40157;42.566;27.526;2022-12-29T17:46:27;102111.34;;;10.28;81.49
19508;BME280;40157;42.566;27.526;2022-12-29T17:48:28;102093.28;;;10.13;81.51
19508;BME280;40157;42.566;27.526;2022-12-29T17:50:29;102094.97;;;10.11;81.09
19508;BME280;40157;42.566;27.526;2022-12-29T17:52:31;102085.91;;;10.03;81.46
19508;BME280;40157;42.566;27.526;2022-12-29T17:54:33;102096.31;;;10.02;81.71
19508;BME280;40157;42.566;27.526;2022-12-29T17:56:33;102085.50;;;9.94;81.89
19508;BME280;40157;42.566;27.526;2022-12-29T17:58:34;102096.91;;;9.94;82.03
19508;BME280;40157;42.566;27.526;2022-12-29T18:00:34;102105.50;;;9.92;82.15
19508;BME280;40157;42.566;27.526;2022-12-29T18:02:35;102086.81;;;9.82;82.36
19508;BME280;40157;42.566;27.526;2022-12-29T18:04:35;102082.06;;;9.74;82.47
19508;BME280;40157;42.566;27.526;2022-12-29T18:06:35;102085.00;;;9.81;84.03
19508;BME280;40157;42.566;27.526;2022-12-29T18:08:37;102066.13;;;9.68;83.40
19508;BME280;40157;42.566;27.526;2022-12-29T18:10:38;102037.56;;;9.53;83.24
19508;BME280;40157;42.566;27.526;2022-12-29T18:12:42;102073.06;;;9.67;83.21
19508;BME280;40157;42.566;27.526;2022-12-29T18:14:43;102082.97;;;9.74;83.14
19508;BME280;40157;42.566;27.526;2022-12-29T18:16:43;102092.06;;;9.82;84.61
19508;BME280;40157;42.566;27.526;2022-12-29T18:18:44;102085.66;;;9.76;84.16
19508;BME280;40157;42.566;27.526;2022-12-29T18:20:45;102079.50;;;9.75;84.46
19508;BME280;40157;42.566;27.526;2022-12-29T18:22:46;102023.94;;;9.40;84.67
19508;BME280;40157;42.566;27.526;2022-12-29T18:24:47;102088.22;;;9.74;84.76
19508;BME280;40157;42.566;27.526;2022-12-29T18:26:47;102063.38;;;9.65;84.67
19508;BME280;40157;42.566;27.526;2022-12-29T18:28:48;102071.16;;;9.63;84.70
19508;BME280;40157;42.566;27.526;2022-12-29T18:30:50;102079.16;;;9.66;84.52
19508;BME280;40157;42.566;27.526;2022-12-29T18:32:51;102082.53;;;9.63;84.29
19508;BME280;40157;42.566;27.526;2022-12-29T18:34:52;102086.03;;;9.64;84.22
19508;BME280;40157;42.566;27.526;2022-12-29T18:36:53;102037.75;;;9.36;83.68
19508;BME280;40157;42.566;27.526;2022-12-29T18:39:02;102073.50;;;9.57;83.29
19508;BME280;40157;42.566;27.526;2022-12-29T18:41:03;102078.75;;;9.57;82.94
19508;BME280;40157;42.566;27.526;2022-12-29T18:43:11;102012.38;;;9.14;82.72
19508;BME280;40157;42.566;27.526;2022-12-29T18:45:18;102071.34;;;9.47;82.38
19508;BME280;40157;42.566;27.526;2022-12-29T18:47:19;102074.78;;;9.45;82.58
19508;BME280;40157;42.566;27.526;2022-12-29T18:49:20;102009.38;;;9.05;82.58
19508;BME280;40157;42.566;27.526;2022-12-29T18:51:23;102028.28;;;9.19;82.71
19508;BME280;40157;42.566;27.526;2022-12-29T18:53:23;102055.66;;;9.27;82.95
19508;BME280;40157;42.566;27.526;2022-12-29T18:55:32;102076.06;;;9.34;82.90
19508;BME280;40157;42.566;27.526;2022-12-29T18:57:32;102015.78;;;8.92;82.21
19508;BME280;40157;42.566;27.526;2022-12-29T18:59:42;102074.00;;;9.07;81.24
19508;BME280;40157;42.566;27.526;2022-12-29T19:01:46;102047.94;;;8.89;81.20
19508;BME280;40157;42.566;27.526;2022-12-29T19:03:47;102062.72;;;8.89;81.50
19508;BME280;40157;42.566;27.526;2022-12-29T19:05:47;102051.31;;;8.67;81.58
19508;BME280;40157;42.566;27.526;2022-12-29T19:07:51;102055.88;;;8.72;81.60
19508;BME280;40157;42.566;27.526;2022-12-29T19:09:52;102060.06;;;8.68;82.49
19508;BME280;40157;42.566;27.526;2022-12-29T19:11:55;102018.75;;;8.41;82.87
19508;BME280;40157;42.566;27.526;2022-12-29T19:13:56;102039.34;;;8.53;83.57
19508;BME280;40157;42.566;27.526;2022-12-29T19:15:57;102050.81;;;8.57;84.36
19508;BME280;40157;42.566;27.526;2022-12-29T19:18:01;102049.09;;;8.57;85.13
19508;BME280;40157;42.566;27.526;2022-12-29T19:20:03;102058.59;;;8.55;85.37
19508;BME280;40157;42.566;27.526;2022-12-29T19:22:03;102052.19;;;8.48;85.47
19508;BME280;40157;42.566;27.526;2022-12-29T19:24:04;102036.28;;;8.44;85.53
19508;BME280;40157;42.566;27.526;2022-12-29T19:26:04;102050.59;;;8.52;86.04
19508;BME280;40157;42.566;27.526;2022-12-29T19:28:06;102055.91;;;8.54;86.02
19508;BME280;40157;42.566;27.526;2022-12-29T19:30:08;102047.09;;;8.51;85.92
19508;BME280;40157;42.566;27.526;2022-12-29T19:32:25;102030.41;;;8.48;85.97
19508;BME280;40157;42.566;27.526;2022-12-29T19:34:30;101994.38;;;8.23;85.65
19508;BME280;40157;42.566;27.526;2022-12-29T19:36:57;101979.16;;;8.14;85.80
19508;BME280;40157;42.566;27.526;2022-12-29T19:39:03;101956.88;;;8.03;85.62
19508;BME280;40157;42.566;27.526;2022-12-29T19:43:35;102042.78;;;8.52;85.58
19508;BME280;40157;42.566;27.526;2022-12-29T19:45:40;102048.75;;;8.49;85.43
19508;BME280;40157;42.566;27.526;2022-12-29T19:47:41;102003.25;;;8.26;85.16
19508;BME280;40157;42.566;27.526;2022-12-29T19:49:42;102043.06;;;8.58;85.06
19508;BME280;40157;42.566;27.526;2022-12-29T19:51:43;102037.81;;;8.58;85.25
19508;BME280;40157;42.566;27.526;2022-12-29T19:53:44;101981.03;;;8.17;84.88
19508;BME280;40157;42.566;27.526;2022-12-29T19:55:45;102041.19;;;8.56;84.63
19508;BME280;40157;42.566;27.526;2022-12-29T19:57:46;102041.25;;;8.57;84.34
19508;BME280;40157;42.566;27.526;2022-12-29T19:59:51;102036.81;;;8.55;83.73
19508;BME280;40157;42.566;27.526;2022-12-29T20:02:42;102032.16;;;8.49;83.57
19508;BME280;40157;42.566;27.526;2022-12-29T20:04:49;102030.53;;;8.51;83.73
19508;BME280;40157;42.566;27.526;2022-12-29T20:06:49;101991.94;;;8.27;83.32
19508;BME280;40157;42.566;27.526;2022-12-29T20:08:53;102034.84;;;8.50;83.59
19508;BME280;40157;42.566;27.526;2022-12-29T20:11:05;101999.13;;;8.31;83.92
19508;BME280;40157;42.566;27.526;2022-12-29T20:13:06;102015.91;;;8.37;84.41
19508;BME280;40157;42.566;27.526;2022-12-29T20:15:07;102020.84;;;8.30;84.91
19508;BME280;40157;42.566;27.526;2022-12-29T20:17:10;102020.44;;;8.21;85.08
19508;BME280;40157;42.566;27.526;2022-12-29T20:19:12;102013.09;;;8.14;85.09
19508;BME280;40157;42.566;27.526;2022-12-29T20:21:15;101987.63;;;7.90;85.13
19508;BME280;40157;42.566;27.526;2022-12-29T20:23:16;102021.56;;;7.90;85.79
19508;BME280;40157;42.566;27.526;2022-12-29T20:25:17;102013.72;;;7.90;85.29
19508;BME280;40157;42.566;27.526;2022-12-29T20:27:17;101995.38;;;7.71;85.45
19508;BME280;40157;42.566;27.526;2022-12-29T20:29:19;102024.03;;;7.87;85.58
19508;BME280;40157;42.566;27.526;2022-12-29T20:33:20;102024.03;;;7.87;85.79
19508;BME280;40157;42.566;27.526;2022-12-29T20:35:21;102029.09;;;7.84;85.63
19508;BME280;40157;42.566;27.526;2022-12-29T20:37:21;102028.97;;;7.81;86.14
19508;BME280;40157;42.566;27.526;2022-12-29T20:39:22;102020.84;;;7.75;86.28
19508;BME280;40157;42.566;27.526;2022-12-29T20:41:22;102027.91;;;7.77;86.95
19508;BME280;40157;42.566;27.526;2022-12-29T20:43:23;101970.72;;;7.46;87.06
19508;BME280;40157;42.566;27.526;2022-12-29T20:45:24;102038.19;;;7.92;86.68
19508;BME280;40157;42.566;27.526;2022-12-29T20:47:24;102034.63;;;7.90;86.55
19508;BME280;40157;42.566;27.526;2022-12-29T20:49:25;102040.47;;;8.03;86.28
19508;BME280;40157;42.566;27.526;2022-12-29T20:51:26;102036.28;;;8.06;86.04
19508;BME280;40157;42.566;27.526;2022-12-29T20:53:28;102030.28;;;8.09;86.08
19508;BME280;40157;42.566;27.526;2022-12-29T20:55:30;102038.13;;;8.09;86.04
19508;BME280;40157;42.566;27.526;2022-12-29T20:57:30;102013.06;;;7.94;86.09
19508;BME280;40157;42.566;27.526;2022-12-29T20:59:30;102028.63;;;8.11;86.09
19508;BME280;40157;42.566;27.526;2022-12-29T21:01:31;102032.09;;;8.10;86.53
19508;BME280;40157;42.566;27.526;2022-12-29T21:03:32;101966.97;;;7.77;86.50
19508;BME280;40157;42.566;27.526;2022-12-29T21:05:35;102026.84;;;8.10;86.65
19508;BME280;40157;42.566;27.526;2022-12-29T21:07:36;102026.47;;;7.84;87.39
19508;BME280;40157;42.566;27.526;2022-12-29T21:09:37;102018.38;;;7.78;88.08
19508;BME280;40157;42.566;27.526;2022-12-29T21:11:37;102027.19;;;7.80;88.22
19508;BME280;40157;42.566;27.526;2022-12-29T21:13:38;102015.47;;;7.72;88.14
19508;BME280;40157;42.566;27.526;2022-12-29T21:15:38;102030.09;;;7.86;88.51
19508;BME280;40157;42.566;27.526;2022-12-29T21:17:39;102022.84;;;7.81;88.34
19508;BME280;40157;42.566;27.526;2022-12-29T21:19:39;102024.19;;;7.90;88.13
19508;BME280;40157;42.566;27.526;2022-12-29T21:21:39;101977.13;;;7.71;87.97
19508;BME280;40157;42.566;27.526;2022-12-29T21:23:40;101976.59;;;7.78;87.57
19508;BME280;40157;42.566;27.526;2022-12-29T21:25:42;102003.75;;;8.00;87.39
19508;BME280;40157;42.566;27.526;2022-12-29T21:27:42;102021.47;;;8.07;87.14
19508;BME280;40157;42.566;27.526;2022-12-29T21:29:43;102021.34;;;8.04;87.26
19508;BME280;40157;42.566;27.526;2022-12-29T21:31:47;102017.47;;;7.95;87.29
19508;BME280;40157;42.566;27.526;2022-12-29T21:33:47;101967.78;;;7.76;87.40
19508;BME280;40157;42.566;27.526;2022-12-29T21:35:48;102001.38;;;7.86;87.39
19508;BME280;40157;42.566;27.526;2022-12-29T21:37:48;101997.09;;;7.88;87.49
19508;BME280;40157;42.566;27.526;2022-12-29T21:39:49;102010.59;;;7.97;87.33
19508;BME280;40157;42.566;27.526;2022-12-29T21:41:49;102012.84;;;7.90;87.54
19508;BME280;40157;42.566;27.526;2022-12-29T21:43:51;101987.31;;;7.84;87.41
19508;BME280;40157;42.566;27.526;2022-12-29T21:46:09;101989.13;;;7.85;87.32
19508;BME280;40157;42.566;27.526;2022-12-29T21:48:10;102013.41;;;8.02;86.95
19508;BME280;40157;42.566;27.526;2022-12-29T21:50:23;102002.81;;;7.99;86.62
19508;BME280;40157;42.566;27.526;2022-12-29T21:52:23;102012.69;;;8.05;86.58
19508;BME280;40157;42.566;27.526;2022-12-29T21:54:25;101996.72;;;7.99;86.37
19508;BME280;40157;42.566;27.526;2022-12-29T21:56:46;102012.38;;;7.99;85.95
19508;BME280;40157;42.566;27.526;2022-12-29T21:58:48;102015.53;;;7.91;86.14
19508;BME280;40157;42.566;27.526;2022-12-29T22:01:09;102003.59;;;7.96;85.67
19508;BME280;40157;42.566;27.526;2022-12-29T22:03:29;101994.56;;;7.90;85.35
19508;BME280;40157;42.566;27.526;2022-12-29T22:05:48;102006.28;;;7.98;85.51
19508;BME280;40157;42.566;27.526;2022-12-29T22:08:07;102015.81;;;7.97;85.11
19508;BME280;40157;42.566;27.526;2022-12-29T22:10:26;102008.97;;;8.00;85.31
19508;BME280;40157;42.566;27.526;2022-12-29T22:12:45;101988.59;;;7.92;85.05
19508;BME280;40157;42.566;27.526;2022-12-29T22:15:00;101991.28;;;7.94;84.87
19508;BME280;40157;42.566;27.526;2022-12-29T22:17:01;102008.81;;;7.96;85.11
19508;BME280;40157;42.566;27.526;2022-12-29T22:19:02;102004.78;;;7.85;85.12
19508;BME280;40157;42.566;27.526;2022-12-29T22:21:06;101984.94;;;7.71;85.29
19508;BME280;40157;42.566;27.526;2022-12-29T22:23:07;101972.28;;;7.60;85.28
19508;BME280;40157;42.566;27.526;2022-12-29T22:25:08;101990.47;;;7.77;85.36
19508;BME280;40157;42.566;27.526;2022-12-29T22:27:09;101996.16;;;7.68;85.35
19508;BME280;40157;42.566;27.526;2022-12-29T22:29:10;101981.97;;;7.45;85.67
19508;BME280;40157;42.566;27.526;2022-12-29T22:33:20;101963.78;;;7.29;85.56
19508;BME280;40157;42.566;27.526;2022-12-29T22:35:21;101957.66;;;7.28;85.48
19508;BME280;40157;42.566;27.526;2022-12-29T22:37:21;101974.66;;;7.38;85.45
19508;BME280;40157;42.566;27.526;2022-12-29T22:39:23;101988.53;;;7.37;85.41
19508;BME280;40157;42.566;27.526;2022-12-29T22:41:24;101981.06;;;7.27;85.45
19508;BME280;40157;42.566;27.526;2022-12-29T22:43:25;101967.63;;;7.19;85.44
19508;BME280;40157;42.566;27.526;2022-12-29T22:45:28;101945.94;;;7.02;85.52
19508;BME280;40157;42.566;27.526;2022-12-29T22:47:29;101968.22;;;7.13;85.68
19508;BME280;40157;42.566;27.526;2022-12-29T22:49:29;101978.13;;;7.20;85.59
19508;BME280;40157;42.566;27.526;2022-12-29T22:51:30;101975.53;;;7.20;85.66
19508;BME280;40157;42.566;27.526;2022-12-29T22:53:30;101912.91;;;6.84;85.94
19508;BME280;40157;42.566;27.526;2022-12-29T22:55:31;101969.72;;;7.08;86.32
19508;BME280;40157;42.566;27.526;2022-12-29T22:57:31;101957.91;;;6.98;86.83
19508;BME280;40157;42.566;27.526;2022-12-29T22:59:32;101949.25;;;6.81;87.04
19508;BME280;40157;42.566;27.526;2022-12-29T23:01:33;101967.38;;;6.96;87.09
19508;BME280;40157;42.566;27.526;2022-12-29T23:03:34;101940.41;;;6.79;87.29
19508;BME280;40157;42.566;27.526;2022-12-29T23:05:35;101975.19;;;6.96;87.23
19508;BME280;40157;42.566;27.526;2022-12-29T23:07:35;101972.34;;;6.92;87.00
19508;BME280;40157;42.566;27.526;2022-12-29T23:09:35;101970.31;;;6.86;86.94
19508;BME280;40157;42.566;27.526;2022-12-29T23:11:36;101956.91;;;6.78;86.98
19508;BME280;40157;42.566;27.526;2022-12-29T23:13:37;101977.16;;;6.84;87.09
19508;BME280;40157;42.566;27.526;2022-12-29T23:15:38;101973.84;;;6.87;87.10
19508;BME280;40157;42.566;27.526;2022-12-29T23:17:39;101968.13;;;6.77;87.07
19508;BME280;40157;42.566;27.526;2022-12-29T23:19:39;101975.47;;;6.84;87.09
19508;BME280;40157;42.566;27.526;2022-12-29T23:21:40;101963.41;;;6.87;87.19
19508;BME280;40157;42.566;27.526;2022-12-29T23:23:40;101960.31;;;6.77;86.75
19508;BME280;40157;42.566;27.526;2022-12-29T23:25:52;101977.41;;;6.89;86.70
19508;BME280;40157;42.566;27.526;2022-12-29T23:27:53;101924.00;;;6.64;86.47
19508;BME280;40157;42.566;27.526;2022-12-29T23:29:53;101968.91;;;6.93;86.69
19508;BME280;40157;42.566;27.526;2022-12-29T23:31:54;101960.13;;;6.91;86.27
19508;BME280;40157;42.566;27.526;2022-12-29T23:33:54;101955.34;;;6.82;85.95
19508;BME280;40157;42.566;27.526;2022-12-29T23:35:55;101969.75;;;6.92;85.93
19508;BME280;40157;42.566;27.526;2022-12-29T23:37:56;101976.59;;;6.90;85.76
19508;BME280;40157;42.566;27.526;2022-12-29T23:39:56;101978.13;;;6.86;85.84
19508;BME280;40157;42.566;27.526;2022-12-29T23:41:56;101982.28;;;6.82;85.73
19508;BME280;40157;42.566;27.526;2022-12-29T23:43:57;101961.53;;;6.67;85.72
19508;BME280;40157;42.566;27.526;2022-12-29T23:45:57;101982.88;;;6.77;85.65
19508;BME280;40157;42.566;27.526;2022-12-29T23:47:58;101967.66;;;6.68;85.94
19508;BME280;40157;42.566;27.526;2022-12-29T23:49:58;101965.53;;;6.61;85.63
19508;BME280;40157;42.566;27.526;2022-12-29T23:51:59;101976.72;;;6.58;85.82
19508;BME280;40157;42.566;27.526;2022-12-29T23:53:59;101967.00;;;6.56;85.69
19508;BME280;40157;42.566;27.526;2022-12-29T23:56:00;101988.69;;;6.71;85.52
19508;BME280;40157;42.566;27.526;2022-12-29T23:58:00;101983.53;;;6.73;85.44
